Time;durP1;ratioP1;P1;durP2;ratioP2;P2;SDS_P1;SDS_P2;PMS_P1;PMS_P2;Temp;Humidity;BMP_temperature;BMP_pressure;BME280_temperature;BME280_humidity;BME280_pressure;Samples;Min_cycle;Max_cycle;Signal;HPM_P1;HPM_P2
2021/08/31 00:00:03;;;;;;;16.73;7.40;;;14.50;99.80;;;;;;6121909;23;20454;-85
2021/08/31 00:02:31;;;;;;;10.07;8.10;;;14.50;99.80;;;;;;6140566;23;20979;-86
2021/08/31 00:05:00;;;;;;;10.13;8.17;;;14.50;99.80;;;;;;6169737;23;20448;-87
2021/08/31 00:07:28;;;;;;;10.60;7.50;;;14.40;99.80;;;;;;6162655;23;20440;-85
2021/08/31 00:09:55;;;;;;;11.60;8.10;;;14.40;99.80;;;;;;6165307;23;20444;-85
2021/08/31 00:12:23;;;;;;;12.33;7.63;;;14.30;99.80;;;;;;6163827;23;20450;-86
2021/08/31 00:14:53;;;;;;;10.20;7.63;;;14.30;99.80;;;;;;6157128;23;20447;-85
2021/08/31 00:17:21;;;;;;;12.00;7.90;;;14.30;99.80;;;;;;6154535;23;20436;-85
2021/08/31 00:19:49;;;;;;;9.33;7.90;;;14.30;99.80;;;;;;6176499;23;20440;-85
2021/08/31 00:22:17;;;;;;;15.37;8.17;;;;;;;;;;6175001;23;20447;-85
2021/08/31 00:24:45;;;;;;;11.73;7.07;;;14.30;99.80;;;;;;6172016;23;20523;-85
2021/08/31 00:27:13;;;;;;;10.00;6.57;;;14.30;99.80;;;;;;6178545;23;21095;-85
2021/08/31 00:29:41;;;;;;;9.27;7.50;;;14.30;99.80;;;;;;6166374;23;20784;-85
2021/08/31 00:32:11;;;;;;;10.87;7.33;;;14.30;99.80;;;;;;6164137;23;20519;-85
2021/08/31 00:34:39;;;;;;;11.33;7.87;;;14.30;99.80;;;;;;6173994;23;21001;-86
2021/08/31 00:37:07;;;;;;;11.80;7.60;;;14.30;99.80;;;;;;6178587;23;20957;-86
2021/08/31 00:39:35;;;;;;;10.10;7.77;;;14.30;99.80;;;;;;6160000;23;20782;-86
2021/08/31 00:42:03;;;;;;;10.40;6.93;;;14.30;99.80;;;;;;6132134;23;20446;-86
2021/08/31 00:44:31;;;;;;;11.00;7.90;;;14.30;99.80;;;;;;6127796;23;20441;-85
2021/08/31 00:47:00;;;;;;;8.40;7.10;;;14.30;99.80;;;;;;6162615;23;20433;-86
2021/08/31 00:49:30;;;;;;;10.40;8.10;;;14.30;99.80;;;;;;6167568;23;20448;-86
2021/08/31 00:52:00;;;;;;;8.27;7.33;;;14.30;99.80;;;;;;6164126;23;20531;-86
2021/08/31 00:54:29;;;;;;;11.70;8.40;;;14.30;99.80;;;;;;6164350;23;20824;-86
2021/08/31 00:56:59;;;;;;;10.13;8.10;;;14.20;99.80;;;;;;6154214;23;20474;-87
2021/08/31 00:59:27;;;;;;;10.40;7.87;;;14.20;99.80;;;;;;6145449;23;20448;-86
2021/08/31 01:01:57;;;;;;;10.00;7.60;;;14.20;99.80;;;;;;6131512;23;20432;-87
2021/08/31 01:04:27;;;;;;;11.47;7.67;;;14.20;99.80;;;;;;6171636;23;20441;-87
2021/08/31 01:06:57;;;;;;;12.50;8.50;;;14.10;99.80;;;;;;6172042;23;20550;-87
2021/08/31 01:09:27;;;;;;;9.90;7.70;;;14.10;99.80;;;;;;6166120;23;20448;-87
2021/08/31 01:11:57;;;;;;;11.27;8.07;;;14.10;99.80;;;;;;6156227;23;20975;-87
2021/08/31 01:14:26;;;;;;;13.83;8.30;;;14.10;99.80;;;;;;6161432;23;20458;-87
2021/08/31 01:16:54;;;;;;;11.57;7.97;;;14.10;99.80;;;;;;6152212;23;20522;-87
2021/08/31 01:19:26;;;;;;;10.50;7.70;;;14.10;99.80;;;;;;6164870;23;20455;-87
2021/08/31 01:21:59;;;;;;;11.20;8.70;;;14.10;99.80;;;;;;6119546;23;20495;-83
2021/08/31 01:24:28;;;;;;;10.53;8.50;;;14.00;99.80;;;;;;6171675;23;21009;-83
2021/08/31 01:26:58;;;;;;;10.47;8.27;;;14.00;99.80;;;;;;6175333;23;20444;-83
2021/08/31 01:29:27;;;;;;;9.90;8.07;;;14.00;99.80;;;;;;6172325;23;20495;-83
2021/08/31 01:31:55;;;;;;;17.43;8.00;;;14.00;99.80;;;;;;6168748;23;20967;-84
2021/08/31 01:34:23;;;;;;;14.33;8.63;;;14.00;99.80;;;;;;6178843;23;20758;-83
2021/08/31 01:36:51;;;;;;;15.90;8.40;;;14.00;99.80;;;;;;6177077;23;20531;-83
2021/08/31 01:39:19;;;;;;;11.70;8.63;;;14.00;99.80;;;;;;6176506;23;20788;-84
2021/08/31 01:41:49;;;;;;;8.83;7.80;;;13.90;99.80;;;;;;6154300;23;20454;-83
2021/08/31 01:44:19;;;;;;;10.50;8.10;;;13.90;99.80;;;;;;6167853;23;20421;-82
2021/08/31 01:46:47;;;;;;;14.20;9.40;;;13.90;99.80;;;;;;6159129;23;20931;-83
2021/08/31 01:49:15;;;;;;;12.60;8.93;;;;;;;;;;6176116;23;20443;-84
2021/08/31 01:51:43;;;;;;;12.27;9.00;;;13.80;99.80;;;;;;6175555;23;20437;-83
2021/08/31 01:54:11;;;;;;;14.17;8.73;;;13.70;99.80;;;;;;6168096;23;20952;-85
2021/08/31 01:56:40;;;;;;;11.30;8.57;;;;;;;;;;6168134;23;20440;-86
2021/08/31 01:59:08;;;;;;;11.53;7.60;;;13.70;99.80;;;;;;6168653;23;20441;-87
2021/08/31 02:01:39;;;;;;;15.20;8.60;;;13.70;99.80;;;;;;6142943;23;20445;-85
2021/08/31 02:04:07;;;;;;;14.13;7.80;;;13.80;99.80;;;;;;6185271;23;20472;-86
2021/08/31 02:06:35;;;;;;;14.80;9.63;;;13.80;99.80;;;;;;6185295;23;20961;-85
2021/08/31 02:09:03;;;;;;;12.23;9.23;;;13.80;99.80;;;;;;6184416;23;21058;-85
2021/08/31 02:11:31;;;;;;;12.60;8.17;;;13.90;99.80;;;;;;6185010;23;20877;-85
2021/08/31 02:14:00;;;;;;;12.53;7.97;;;13.90;99.80;;;;;;6183954;23;20423;-85
2021/08/31 02:16:28;;;;;;;8.73;7.30;;;13.90;99.80;;;;;;6180898;23;20405;-86
2021/08/31 02:18:57;;;;;;;12.90;8.70;;;14.00;99.80;;;;;;6180372;23;20435;-86
2021/08/31 02:21:25;;;;;;;11.27;8.10;;;14.00;99.80;;;;;;6180014;23;20429;-85
2021/08/31 02:23:53;;;;;;;13.43;8.87;;;14.00;99.80;;;;;;6180500;23;20447;-86
2021/08/31 02:26:21;;;;;;;11.00;8.00;;;14.00;99.80;;;;;;6180470;23;20405;-86
2021/08/31 02:28:49;;;;;;;13.43;9.43;;;;;;;;;;6180173;23;20447;-86
2021/08/31 02:31:17;;;;;;;10.80;7.87;;;14.00;99.80;;;;;;6179413;23;20415;-86
2021/08/31 02:33:45;;;;;;;11.33;8.73;;;14.00;99.80;;;;;;6179691;23;20409;-86
2021/08/31 02:36:14;;;;;;;12.47;8.00;;;14.00;99.80;;;;;;6180405;23;20713;-86
2021/08/31 02:38:42;;;;;;;13.00;8.10;;;14.00;99.80;;;;;;6123735;23;20552;-86
2021/08/31 02:41:10;;;;;;;10.43;7.20;;;14.00;99.80;;;;;;6153530;23;20451;-86
2021/08/31 02:43:38;;;;;;;10.77;7.67;;;14.10;99.80;;;;;;6169955;23;20438;-86
2021/08/31 02:46:06;;;;;;;11.90;8.23;;;14.10;99.80;;;;;;6153327;23;20437;-86
2021/08/31 02:48:34;;;;;;;10.40;7.43;;;14.10;99.80;;;;;;6137092;23;20440;-86
2021/08/31 02:51:02;;;;;;;9.40;8.17;;;14.10;99.80;;;;;;6165469;23;20435;-86
2021/08/31 02:53:32;;;;;;;12.70;8.90;;;14.10;99.80;;;;;;6161622;23;20448;-85
2021/08/31 02:56:00;;;;;;;10.80;7.80;;;14.10;99.80;;;;;;6164068;23;20441;-86
2021/08/31 02:58:28;;;;;;;13.37;8.63;;;14.10;99.80;;;;;;6128846;23;20452;-86
2021/08/31 03:01:05;;;;;;;11.20;7.87;;;14.20;99.80;;;;;;6096922;23;20434;-87
2021/08/31 03:03:33;;;;;;;11.10;7.57;;;14.30;99.80;;;;;;6146843;23;20889;-85
2021/08/31 03:06:01;;;;;;;14.50;9.90;;;14.30;99.80;;;;;;6158020;23;20451;-85
2021/08/31 03:08:29;;;;;;;11.40;8.13;;;14.30;99.80;;;;;;6158871;23;20445;-86
2021/08/31 03:10:59;;;;;;;11.80;8.07;;;14.40;99.80;;;;;;6163168;23;20451;-86
2021/08/31 03:13:27;;;;;;;11.90;8.47;;;;;;;;;;6159481;23;20444;-87
2021/08/31 03:15:55;;;;;;;11.40;7.97;;;14.30;99.80;;;;;;6164030;23;20444;-86
2021/08/31 03:18:23;;;;;;;10.27;8.13;;;14.30;99.80;;;;;;6164413;23;20441;-86
2021/08/31 03:20:51;;;;;;;17.07;9.20;;;14.30;99.80;;;;;;6172712;23;20448;-85
2021/08/31 03:23:19;;;;;;;13.17;8.63;;;14.30;99.80;;;;;;6173455;23;20464;-87
2021/08/31 03:25:47;;;;;;;12.83;8.10;;;14.30;99.80;;;;;;6165509;23;20508;-86
2021/08/31 03:28:16;;;;;;;13.10;8.00;;;14.30;99.80;;;;;;6164992;23;20776;-85
2021/08/31 03:30:45;;;;;;;12.13;8.70;;;14.30;99.80;;;;;;6163786;23;20455;-85
2021/08/31 03:33:13;;;;;;;12.10;8.00;;;14.20;99.80;;;;;;6159680;23;20491;-86
2021/08/31 03:35:41;;;;;;;12.73;8.40;;;14.10;99.80;;;;;;6166151;23;20994;-86
2021/08/31 03:38:09;;;;;;;11.10;7.50;;;14.10;99.80;;;;;;6164469;23;21051;-85
2021/08/31 03:40:37;;;;;;;13.37;8.13;;;14.10;99.80;;;;;;6160591;23;20449;-85
2021/08/31 03:43:07;;;;;;;13.10;8.23;;;14.10;99.80;;;;;;6167360;23;20817;-85
2021/08/31 03:45:36;;;;;;;12.20;8.53;;;14.10;99.80;;;;;;6161536;23;20467;-85
2021/08/31 03:48:05;;;;;;;11.77;8.50;;;14.10;99.80;;;;;;6167838;23;20450;-87
2021/08/31 03:50:33;;;;;;;11.20;8.37;;;14.10;99.80;;;;;;6173876;23;20440;-85
2021/08/31 03:53:01;;;;;;;12.70;8.07;;;;;;;;;;6172175;23;20437;-86
2021/08/31 03:55:29;;;;;;;10.93;8.37;;;;;;;;;;6170657;23;20452;-85
2021/08/31 03:57:57;;;;;;;12.83;8.37;;;;;;;;;;6162833;23;20436;-85
2021/08/31 04:00:25;;;;;;;11.47;7.97;;;14.10;99.80;;;;;;6120764;23;20814;-84
2021/08/31 04:02:55;;;;;;;10.77;8.07;;;14.20;99.80;;;;;;6138107;23;21305;-85
2021/08/31 04:05:23;;;;;;;11.20;8.07;;;14.20;99.80;;;;;;6175872;23;20787;-85
2021/08/31 04:07:52;;;;;;;11.67;7.80;;;;;;;;;;6162314;23;20441;-85
2021/08/31 04:10:21;;;;;;;11.37;8.27;;;14.20;99.80;;;;;;6129030;23;20443;-85
2021/08/31 04:12:49;;;;;;;9.60;7.83;;;14.20;99.80;;;;;;6118475;23;20448;-85
2021/08/31 04:15:17;;;;;;;11.70;8.50;;;14.10;99.80;;;;;;6115826;23;20443;-85
2021/08/31 04:17:45;;;;;;;11.70;8.37;;;;;;;;;;6121200;23;20448;-83
2021/08/31 04:20:15;;;;;;;12.93;9.30;;;;;;;;;;6145740;23;25465;-83
2021/08/31 04:22:43;;;;;;;13.17;9.70;;;;;;;;;;6132216;23;20446;-83
2021/08/31 04:25:12;;;;;;;12.03;8.70;;;;;;;;;;6146514;23;20441;-83
2021/08/31 04:27:41;;;;;;;15.17;8.73;;;;;;;;;;6134101;23;20444;-83
2021/08/31 04:30:09;;;;;;;12.07;8.60;;;;;;;;;;6119104;23;20965;-83
2021/08/31 04:32:37;;;;;;;12.47;8.60;;;;;;;;;;6136535;23;20438;-83
2021/08/31 04:35:06;;;;;;;10.60;8.90;;;;;;;;;;6146245;23;20516;-83
2021/08/31 04:37:36;;;;;;;11.20;8.63;;;;;;;;;;6143151;23;20435;-85
2021/08/31 04:40:05;;;;;;;13.57;10.23;;;;;;;;;;6140789;23;20448;-83
2021/08/31 04:42:33;;;;;;;14.20;8.80;;;;;;;;;;6132105;23;20452;-83
2021/08/31 04:45:02;;;;;;;16.53;10.00;;;;;;;;;;6137195;23;20464;-83
2021/08/31 04:47:30;;;;;;;11.57;8.70;;;;;;;;;;6138606;23;20438;-85
2021/08/31 04:49:58;;;;;;;19.43;9.17;;;;;;;;;;6136306;23;20449;-84
2021/08/31 04:52:26;;;;;;;13.10;10.07;;;;;;;;;;6140200;23;20441;-84
2021/08/31 04:54:57;;;;;;;14.20;9.37;;;;;;;;;;6134854;23;20441;-84
2021/08/31 04:57:25;;;;;;;11.83;9.03;;;;;;;;;;6133356;23;20445;-84
2021/08/31 04:59:53;;;;;;;12.40;8.70;;;;;;;;;;6118731;23;20964;-83
2021/08/31 05:02:21;;;;;;;12.43;8.80;;;13.30;99.80;;;;;;6138523;23;21182;-83
2021/08/31 05:04:51;;;;;;;13.93;9.20;;;13.30;99.80;;;;;;6141124;23;20796;-83
2021/08/31 05:07:19;;;;;;;19.03;9.83;;;13.30;99.80;;;;;;6146684;23;20781;-83
2021/08/31 05:09:47;;;;;;;13.13;9.00;;;13.20;99.80;;;;;;6143192;23;20475;-83
2021/08/31 05:12:16;;;;;;;18.33;10.70;;;13.20;99.80;;;;;;6142773;23;20440;-81
2021/08/31 05:14:44;;;;;;;11.83;8.60;;;13.30;99.80;;;;;;6136655;23;20780;-83
2021/08/31 05:17:12;;;;;;;15.13;9.67;;;13.30;99.80;;;;;;6132308;23;20437;-83
2021/08/31 05:19:42;;;;;;;13.53;9.43;;;13.30;99.80;;;;;;6155405;23;20436;-82
2021/08/31 05:22:10;;;;;;;10.53;8.73;;;13.30;99.80;;;;;;6124132;23;21217;-83
2021/08/31 05:24:39;;;;;;;17.00;8.10;;;13.40;99.80;;;;;;6152243;23;20448;-83
2021/08/31 05:27:07;;;;;;;11.70;9.37;;;13.40;99.80;;;;;;6170124;23;20565;-83
2021/08/31 05:29:37;;;;;;;11.80;9.33;;;13.40;99.80;;;;;;6168973;23;20947;-83
2021/08/31 05:32:06;;;;;;;12.00;8.80;;;13.40;99.80;;;;;;6165081;23;20442;-82
2021/08/31 05:34:34;;;;;;;12.37;9.40;;;13.40;99.80;;;;;;6175582;23;20539;-83
2021/08/31 05:37:02;;;;;;;14.47;9.20;;;13.40;99.80;;;;;;6174428;23;20975;-83
2021/08/31 05:39:33;;;;;;;16.33;10.20;;;13.40;99.80;;;;;;6174296;23;20439;-81
2021/08/31 05:42:02;;;;;;;13.90;9.00;;;13.40;99.80;;;;;;6164315;23;20444;-84
2021/08/31 05:44:31;;;;;;;13.53;10.00;;;13.40;99.80;;;;;;6161046;23;20441;-83
2021/08/31 05:47:00;;;;;;;14.63;9.53;;;13.40;99.80;;;;;;6170221;23;20439;-85
2021/08/31 05:49:29;;;;;;;12.80;8.47;;;13.50;99.80;;;;;;6159750;23;20444;-84
2021/08/31 05:51:57;;;;;;;13.90;8.60;;;13.50;99.80;;;;;;6170600;23;20447;-84
2021/08/31 05:54:26;;;;;;;15.83;9.00;;;13.60;99.80;;;;;;6170192;23;20447;-83
2021/08/31 05:56:54;;;;;;;13.00;9.43;;;13.60;99.80;;;;;;6166816;23;20440;-84
2021/08/31 05:59:22;;;;;;;13.07;9.30;;;13.70;99.80;;;;;;6143377;23;20970;-83
2021/08/31 06:01:55;;;;;;;13.03;9.70;;;13.70;99.80;;;;;;6120603;23;20448;-84
2021/08/31 06:04:37;;;;;;;14.63;9.37;;;13.90;99.80;;;;;;6167136;23;20447;-84
2021/08/31 06:07:06;;;;;;;13.57;9.20;;;13.90;99.80;;;;;;6177268;23;20456;-83
2021/08/31 06:09:36;;;;;;;13.23;8.73;;;14.00;99.80;;;;;;6167719;23;20495;-82
2021/08/31 06:12:05;;;;;;;12.03;9.10;;;14.10;99.80;;;;;;6166132;23;20445;-82
2021/08/31 06:14:33;;;;;;;13.50;8.63;;;14.20;99.80;;;;;;6171792;23;20437;-82
2021/08/31 06:17:01;;;;;;;12.77;8.63;;;14.30;99.80;;;;;;6160781;23;20450;-82
2021/08/31 06:19:29;;;;;;;13.27;8.73;;;14.40;99.80;;;;;;6173870;23;20456;-82
2021/08/31 06:21:59;;;;;;;14.63;10.27;;;14.40;99.80;;;;;;6174470;23;20450;-82
2021/08/31 06:24:27;;;;;;;13.47;9.20;;;14.40;99.80;;;;;;6154979;23;21200;-82
2021/08/31 06:26:56;;;;;;;16.77;10.20;;;14.40;99.80;;;;;;6168020;23;20439;-83
2021/08/31 06:29:24;;;;;;;16.13;9.17;;;14.40;99.80;;;;;;6159724;23;20429;-84
2021/08/31 06:31:52;;;;;;;15.73;8.50;;;14.50;99.80;;;;;;6163573;23;21271;-83
2021/08/31 06:34:20;;;;;;;18.07;9.23;;;14.50;99.80;;;;;;6168069;23;20440;-84
2021/08/31 06:36:48;;;;;;;14.20;9.43;;;14.50;99.80;;;;;;6168442;23;20442;-82
2021/08/31 06:39:17;;;;;;;11.50;9.23;;;14.60;99.80;;;;;;6152417;23;20463;-83
2021/08/31 06:41:45;;;;;;;14.07;9.80;;;14.60;99.80;;;;;;6159736;23;20432;-83
2021/08/31 06:44:13;;;;;;;14.00;9.40;;;14.60;99.80;;;;;;6162938;23;21074;-83
2021/08/31 06:46:41;;;;;;;14.53;9.40;;;14.70;99.80;;;;;;6158467;23;20468;-83
2021/08/31 06:49:12;;;;;;;15.53;9.40;;;14.70;99.80;;;;;;6167633;23;20524;-83
2021/08/31 06:51:40;;;;;;;15.33;8.20;;;14.80;99.80;;;;;;6172947;23;21042;-83
2021/08/31 06:54:09;;;;;;;17.80;9.20;;;14.80;99.80;;;;;;6170031;23;21282;-84
2021/08/31 06:56:38;;;;;;;11.97;8.57;;;14.90;99.80;;;;;;6164887;23;20516;-83
2021/08/31 06:59:06;;;;;;;13.37;9.20;;;15.00;99.80;;;;;;6145191;23;20445;-83
2021/08/31 07:01:35;;;;;;;10.20;8.20;;;15.10;99.80;;;;;;6113931;23;20442;-81
2021/08/31 07:04:04;;;;;;;10.97;8.30;;;15.30;99.80;;;;;;6140321;23;20437;-82
2021/08/31 07:06:32;;;;;;;8.60;7.33;;;15.40;99.80;;;;;;6141975;23;20442;-83
2021/08/31 07:09:00;;;;;;;9.97;7.60;;;15.50;99.80;;;;;;6159574;23;20945;-83
2021/08/31 07:11:28;;;;;;;11.47;8.77;;;15.60;99.80;;;;;;6164503;23;20437;-84
2021/08/31 07:13:57;;;;;;;10.93;7.67;;;15.70;99.80;;;;;;6166413;23;20437;-84
2021/08/31 07:16:25;;;;;;;10.63;7.43;;;15.80;99.80;;;;;;6165240;23;20437;-83
2021/08/31 07:18:53;;;;;;;10.30;7.70;;;16.00;99.80;;;;;;6167433;23;20448;-83
2021/08/31 07:21:21;;;;;;;8.87;7.10;;;16.10;99.80;;;;;;6169649;23;20937;-84
2021/08/31 07:23:50;;;;;;;10.17;7.33;;;16.10;99.80;;;;;;6174323;23;20445;-84
2021/08/31 07:26:18;;;;;;;7.60;6.13;;;16.20;99.80;;;;;;6167867;23;20434;-83
2021/08/31 07:28:46;;;;;;;13.93;7.57;;;16.30;99.80;;;;;;6146544;23;20445;-83
2021/08/31 07:31:25;;;;;;;8.07;6.97;;;16.40;99.80;;;;;;6167496;23;20433;-83
2021/08/31 07:33:53;;;;;;;8.37;5.80;;;16.50;99.80;;;;;;6167917;23;20441;-84
2021/08/31 07:36:22;;;;;;;10.40;6.80;;;16.50;99.80;;;;;;6166234;23;20457;-84
2021/08/31 07:38:51;;;;;;;10.43;5.90;;;16.60;99.80;;;;;;6166516;23;20501;-84
2021/08/31 07:41:19;;;;;;;7.80;5.97;;;16.70;99.80;;;;;;6157932;23;20532;-83
2021/08/31 07:43:47;;;;;;;8.10;6.10;;;16.70;99.80;;;;;;6130078;23;20442;-84
2021/08/31 07:46:15;;;;;;;10.43;6.13;;;16.80;99.80;;;;;;6161880;23;20501;-84
2021/08/31 07:48:45;;;;;;;7.37;5.50;;;16.80;99.80;;;;;;6170508;23;21154;-85
2021/08/31 07:51:13;;;;;;;9.00;6.43;;;17.00;99.80;;;;;;6176875;23;20437;-84
2021/08/31 07:53:41;;;;;;;7.43;5.93;;;17.10;99.80;;;;;;6142940;23;20441;-84
2021/08/31 07:56:09;;;;;;;6.53;5.77;;;17.30;99.80;;;;;;6165137;23;20429;-84
2021/08/31 07:58:37;;;;;;;6.90;5.60;;;17.40;99.80;;;;;;6167071;23;20955;-83
2021/08/31 08:01:06;;;;;;;10.17;6.07;;;17.30;99.80;;;;;;6110177;23;20435;-84
2021/08/31 08:03:34;;;;;;;11.00;6.50;;;17.40;99.80;;;;;;6157667;23;20442;-84
2021/08/31 08:06:04;;;;;;;8.07;5.37;;;17.50;99.80;;;;;;6173409;23;21012;-84
2021/08/31 08:08:32;;;;;;;9.57;5.40;;;17.50;99.80;;;;;;6100450;23;20649;-84
2021/08/31 08:11:00;;;;;;;7.93;5.43;;;17.70;99.80;;;;;;6116277;23;20495;-84
2021/08/31 08:13:28;;;;;;;6.00;5.30;;;17.80;99.80;;;;;;6156901;23;20995;-84
2021/08/31 08:15:56;;;;;;;5.80;5.10;;;;;;;;;;6163107;23;20502;-84
2021/08/31 08:18:24;;;;;;;6.40;5.40;;;17.90;99.80;;;;;;6172773;23;20442;-84
2021/08/31 08:20:52;;;;;;;7.00;5.17;;;;;;;;;;6173418;23;20465;-85
2021/08/31 08:23:22;;;;;;;10.03;5.37;;;18.00;99.80;;;;;;6175571;23;20440;-84
2021/08/31 08:25:50;;;;;;;6.30;4.90;;;18.10;99.80;;;;;;6172280;23;20945;-84
2021/08/31 08:28:21;;;;;;;7.20;5.67;;;18.30;99.80;;;;;;6155883;23;20961;-84
2021/08/31 08:30:50;;;;;;;7.07;5.43;;;18.40;99.80;;;;;;6121372;23;20965;-84
2021/08/31 08:33:19;;;;;;;6.63;5.47;;;18.40;99.80;;;;;;6143088;23;20451;-83
2021/08/31 08:35:48;;;;;;;6.43;5.10;;;18.50;99.80;;;;;;6174239;23;20532;-84
2021/08/31 08:38:16;;;;;;;5.83;4.83;;;18.60;99.80;;;;;;6164823;23;20439;-83
2021/08/31 08:40:46;;;;;;;5.77;5.17;;;18.70;99.80;;;;;;6165473;23;20897;-84
2021/08/31 08:43:15;;;;;;;7.47;5.43;;;18.60;99.80;;;;;;6098993;23;20474;-84
2021/08/31 08:45:46;;;;;;;6.37;5.30;;;18.70;99.80;;;;;;6114103;23;20847;-84
2021/08/31 08:48:22;;;;;;;5.40;4.47;;;18.90;99.80;;;;;;6128994;23;20444;-84
2021/08/31 08:50:52;;;;;;;7.60;5.20;;;18.90;99.80;;;;;;6157405;23;20422;-83
2021/08/31 08:53:20;;;;;;;5.47;4.90;;;18.90;99.80;;;;;;6166677;23;20425;-84
2021/08/31 08:55:49;;;;;;;8.10;6.63;;;19.00;99.80;;;;;;6157190;23;20438;-84
2021/08/31 08:58:17;;;;;;;6.03;4.97;;;19.20;99.80;;;;;;6127869;23;20555;-84
2021/08/31 09:01:00;;;;;;;6.40;4.90;;;19.30;99.80;;;;;;6119577;23;20533;-84
2021/08/31 09:03:31;;;;;;;6.27;5.07;;;19.30;99.80;;;;;;6160502;23;21022;-84
2021/08/31 09:06:11;;;;;;;6.80;5.00;;;19.20;99.80;;;;;;6175042;23;20436;-84
2021/08/31 09:08:42;;;;;;;6.93;4.90;;;19.20;99.80;;;;;;6173059;23;20971;-84
2021/08/31 09:11:27;;;;;;;7.90;5.27;;;19.20;99.80;;;;;;6170225;23;20456;-83
2021/08/31 09:14:21;;;;;;;6.30;4.83;;;19.40;99.80;;;;;;6147435;23;20441;-84
2021/08/31 09:16:51;;;;;;;5.50;5.00;;;19.40;99.80;;;;;;6108348;23;20434;-84
2021/08/31 09:19:28;;;;;;;7.07;5.10;;;19.50;99.80;;;;;;6164552;23;20448;-84
2021/08/31 09:22:12;;;;;;;6.83;5.03;;;19.50;99.80;;;;;;6154846;23;20941;-84
2021/08/31 09:24:41;;;;;;;5.33;4.57;;;19.70;99.80;;;;;;6162387;23;20435;-83
2021/08/31 09:27:10;;;;;;;5.53;4.20;;;20.00;99.80;;;;;;6103851;23;20464;-83
2021/08/31 09:29:40;;;;;;;5.10;4.57;;;20.10;99.80;;;;;;6102070;23;20444;-84
2021/08/31 09:32:12;;;;;;;7.17;4.77;;;20.30;99.80;;;;;;6123681;23;20797;-84
2021/08/31 09:34:43;;;;;;;6.23;5.13;;;20.20;99.80;;;;;;6170064;23;20442;-85
2021/08/31 09:37:33;;;;;;;5.20;4.70;;;20.00;99.80;;;;;;6176572;23;20438;-85
2021/08/31 09:40:05;;;;;;;5.97;4.77;;;19.80;99.80;;;;;;6172221;23;20599;-85
2021/08/31 09:42:35;;;;;;;5.60;4.90;;;19.50;99.80;;;;;;6173515;23;20464;-85
2021/08/31 09:45:04;;;;;;;4.43;4.13;;;19.40;99.80;;;;;;6148614;23;20433;-82
2021/08/31 09:47:36;;;;;;;9.73;5.20;;;19.60;99.80;;;;;;6117320;23;20442;-83
2021/08/31 09:50:05;;;;;;;4.47;4.07;;;19.70;99.80;;;;;;6167890;23;20855;-83
2021/08/31 09:52:33;;;;;;;5.90;5.13;;;20.00;99.80;;;;;;6162801;23;20440;-83
2021/08/31 09:55:02;;;;;;;10.13;5.30;;;20.20;99.80;;;;;;6127810;23;20512;-84
2021/08/31 09:57:32;;;;;;;5.83;4.70;;;20.20;99.80;;;;;;6144311;23;20443;-84
2021/08/31 10:00:04;;;;;;;6.50;4.93;;;20.30;99.80;;;;;;6125430;23;21555;-85
2021/08/31 10:02:32;;;;;;;6.23;5.27;;;20.60;99.80;;;;;;6140297;23;20441;-84
2021/08/31 10:05:03;;;;;;;5.60;4.60;;;20.90;99.80;;;;;;6174562;23;20515;-82
2021/08/31 10:07:33;;;;;;;7.13;4.80;;;21.10;99.80;;;;;;6173325;23;20432;-82
2021/08/31 10:10:02;;;;;;;5.43;4.90;;;21.10;99.00;;;;;;6177687;23;20515;-82
2021/08/31 10:12:31;;;;;;;4.70;4.30;;;21.00;99.40;;;;;;6174027;23;20440;-82
2021/08/31 10:15:02;;;;;;;4.73;3.83;;;20.90;99.80;;;;;;6163306;23;20465;-82
2021/08/31 10:17:31;;;;;;;6.07;5.10;;;20.90;99.50;;;;;;6161222;23;20475;-82
2021/08/31 10:20:01;;;;;;;7.83;5.40;;;20.80;99.80;;;;;;6178467;23;20443;-83
2021/08/31 10:22:30;;;;;;;7.53;6.07;;;20.70;99.80;;;;;;6177599;23;20941;-82
2021/08/31 10:24:58;;;;;;;5.10;4.50;;;20.50;99.80;;;;;;6164783;23;20508;-81
2021/08/31 10:27:35;;;;;;;8.40;4.90;;;20.30;99.80;;;;;;6169997;23;20446;-82
2021/08/31 10:30:37;;;;;;;7.63;5.00;;;20.30;99.80;;;;;;6167385;23;21297;-82
2021/08/31 10:33:30;;;;;;;8.83;5.63;;;20.50;99.80;;;;;;6163022;23;20423;-82
2021/08/31 10:35:59;;;;;;;8.33;5.83;;;20.90;99.80;;;;;;6162787;23;21176;-82
2021/08/31 10:38:57;;;;;;;5.37;4.87;;;21.10;99.80;;;;;;6162653;23;20443;-83
2021/08/31 10:41:46;;;;;;;6.43;5.27;;;21.20;99.80;;;;;;6165681;23;20425;-83
2021/08/31 10:44:30;;;;;;;5.97;5.37;;;21.10;99.80;;;;;;6129510;23;20877;-85
2021/08/31 10:47:17;;;;;;;6.80;5.80;;;21.20;99.80;;;;;;6101688;23;20439;-83
2021/08/31 10:50:16;;;;;;;7.17;4.90;;;21.30;99.80;;;;;;6154355;23;20444;-81
2021/08/31 10:52:48;;;;;;;5.87;5.27;;;21.50;99.80;;;;;;6176344;23;20514;-82
2021/08/31 10:55:43;;;;;;;6.70;5.20;;;21.50;99.10;;;;;;6172647;23;20436;-82
2021/08/31 10:58:12;;;;;;;5.33;4.73;;;21.70;99.50;;;;;;6134795;23;20433;-82
2021/08/31 11:00:55;;;;;;;5.23;4.73;;;21.90;98.20;;;;;;6101898;23;20446;-83
2021/08/31 11:03:39;;;;;;;7.13;5.67;;;22.00;96.60;;;;;;6145295;23;20471;-82
2021/08/31 11:06:33;;;;;;;6.30;5.70;;;21.90;97.10;;;;;;6168418;23;20495;-84
2021/08/31 11:09:13;;;;;;;6.90;5.60;;;21.70;97.80;;;;;;6154701;23;20436;-85
2021/08/31 11:11:44;;;;;;;5.77;4.67;;;21.50;98.20;;;;;;6166723;23;20437;-85
2021/08/31 11:14:13;;;;;;;7.20;5.50;;;21.40;98.70;;;;;;6168021;23;20437;-83
2021/08/31 11:16:42;;;;;;;7.17;5.90;;;21.30;98.40;;;;;;6167983;23;20527;-84
2021/08/31 11:19:27;;;;;;;5.53;5.00;;;21.10;99.80;;;;;;6173013;23;20433;-85
2021/08/31 11:21:57;;;;;;;6.97;5.87;;;20.90;99.80;;;;;;6177839;23;20432;-82
2021/08/31 11:24:26;;;;;;;8.30;5.10;;;20.80;99.80;;;;;;6140208;23;20446;-83
2021/08/31 11:26:59;;;;;;;5.30;4.73;;;20.80;99.80;;;;;;6164665;23;20467;-83
2021/08/31 11:29:27;;;;;;;7.43;6.30;;;20.80;99.80;;;;;;6151325;23;20507;-83
2021/08/31 11:32:04;;;;;;;6.43;5.30;;;20.70;99.80;;;;;;6167546;23;20433;-82
2021/08/31 11:34:34;;;;;;;5.47;4.93;;;20.80;99.80;;;;;;6177962;23;20446;-84
2021/08/31 11:37:06;;;;;;;5.60;5.07;;;21.00;99.80;;;;;;6169633;23;20438;-84
2021/08/31 11:39:35;;;;;;;7.10;5.67;;;21.30;98.60;;;;;;6165572;23;20533;-84
2021/08/31 11:42:12;;;;;;;6.50;5.80;;;21.70;98.60;;;;;;6166748;23;21240;-84
2021/08/31 11:44:57;;;;;;;6.53;5.03;;;22.40;97.00;;;;;;6126956;23;20442;-83
2021/08/31 11:47:27;;;;;;;5.60;5.10;;;;;;;;;;6117401;23;20462;-84
2021/08/31 11:50:01;;;;;;;6.90;5.30;;;;;;;;;;6156874;23;20474;-84
2021/08/31 11:52:30;;;;;;;5.43;4.77;;;;;;;;;;6174037;23;20444;-83
2021/08/31 11:55:01;;;;;;;6.33;5.50;;;;;;;;;;6173434;23;20429;-83
2021/08/31 11:57:30;;;;;;;6.37;5.60;;;;;;;;;;6165768;23;20839;-85
2021/08/31 11:59:59;;;;;;;5.30;4.80;;;;;;;;;;6130662;23;20446;-85
2021/08/31 12:02:28;;;;;;;4.47;4.07;;;;;;;;;;6134646;23;20441;-86
2021/08/31 12:05:06;;;;;;;5.80;5.30;;;22.40;94.50;;;;;;6178031;23;20429;-85
2021/08/31 12:07:37;;;;;;;6.90;5.90;;;22.00;95.80;;;;;;6180561;23;20444;-85
2021/08/31 12:10:08;;;;;;;7.43;5.50;;;21.60;96.90;;;;;;6129943;23;20448;-85
2021/08/31 12:12:37;;;;;;;5.20;4.70;;;21.30;97.70;;;;;;6136888;23;20442;-84
2021/08/31 12:15:07;;;;;;;6.73;5.33;;;21.00;98.40;;;;;;6123456;23;20457;-85
2021/08/31 12:17:36;;;;;;;5.80;5.07;;;20.80;99.40;;;;;;6158870;23;20511;-85
2021/08/31 12:20:11;;;;;;;7.40;5.30;;;20.40;99.80;;;;;;6170157;23;20466;-85
2021/08/31 12:22:41;;;;;;;7.53;5.60;;;20.20;99.80;;;;;;6165953;23;20445;-85
2021/08/31 12:25:11;;;;;;;5.37;4.87;;;20.00;99.80;;;;;;6161413;23;20853;-85
2021/08/31 12:27:40;;;;;;;6.13;5.43;;;19.90;99.80;;;;;;6149799;23;21003;-85
2021/08/31 12:30:10;;;;;;;7.00;6.30;;;19.70;99.80;;;;;;6148221;23;20506;-85
2021/08/31 12:32:42;;;;;;;6.80;4.70;;;19.60;99.80;;;;;;6164765;23;20447;-84
2021/08/31 12:35:25;;;;;;;7.90;5.97;;;19.60;99.80;;;;;;6178723;23;20480;-85
2021/08/31 12:38:12;;;;;;;6.60;5.50;;;19.70;99.80;;;;;;6182504;23;21036;-85
2021/08/31 12:40:58;;;;;;;7.50;5.83;;;19.70;99.80;;;;;;6168198;23;20446;-85
2021/08/31 12:43:28;;;;;;;9.00;6.77;;;19.90;99.80;;;;;;6167287;23;20439;-85
2021/08/31 12:45:58;;;;;;;7.10;6.17;;;20.10;99.80;;;;;;6171830;23;20457;-85
2021/08/31 12:48:37;;;;;;;7.20;5.13;;;20.40;99.80;;;;;;6165765;23;20981;-85
2021/08/31 12:51:07;;;;;;;7.20;6.00;;;20.80;99.80;;;;;;6171510;23;20450;-85
2021/08/31 12:53:36;;;;;;;6.00;5.40;;;21.20;99.80;;;;;;6167900;23;20441;-84
2021/08/31 12:56:07;;;;;;;5.23;4.53;;;22.30;99.20;;;;;;6155227;23;20444;-84
2021/08/31 12:58:36;;;;;;;8.03;6.00;;;;;;;;;;6165693;23;20458;-85
2021/08/31 13:01:15;;;;;;;5.67;5.07;;;;;;;;;;6121897;23;20452;-84
2021/08/31 13:03:45;;;;;;;5.90;5.03;;;;;;;;;;6091219;23;21474;-85
2021/08/31 13:06:32;;;;;;;6.30;4.53;;;;;;;;;;6152115;23;20437;-85
2021/08/31 13:09:03;;;;;;;4.73;4.30;;;;;;;;;;6143185;23;20444;-84
2021/08/31 13:11:31;;;;;;;5.63;4.17;;;27.20;74.60;;;;;;6145100;23;20441;-84